Nearby METAR Reports

 

KMQS - Coatesville, Pennsylvania, USA
Distance from station: NW 12mi, 19km
Updated: Tue, 20-Apr-2021 2:15am EDT
Clear
Clear
 Wind from varies
Wind: varies 6 mph , 9 km/h
Temperature: 48°F , 9°C
Wind Chill: 45°F , 7°C
Dew Point: 45°F , 7°C
Humidity: 87%
Barometer: 29.92 inHg , 1013.2 hPa
Clouds: Clear
Visibility: 10 miles , 16 km
2021/04/20 06:15 KMQS 200615Z AUTO VRB05KT 10SM CLR 09/07 A2992 RMK AO2
KOQN - West Chester, Pennsylvania, USA
Distance from station: NE 13mi, 21km
Updated: Tue, 20-Apr-2021 2:15am EDT
Clear
Clear
 Wind from WSW
Wind: WSW 3 mph , 6 km/h
Temperature: 46°F , 8°C
Dew Point: 43°F , 6°C
Humidity: 87%
Barometer: 29.92 inHg , 1013.2 hPa
Clouds: Clear
Visibility: 10 miles , 16 km
2021/04/20 06:15 KOQN 200615Z AUTO 24003KT 10SM CLR 08/06 A2992 RMK AO2
 
KILG - Wilmington, Delaware, USA
Distance from station: SSE 14mi, 23km
Updated: Tue, 20-Apr-2021 1:51am EDT
Clear
Clear
 Wind from calm
Wind: Calm
Temperature: 48°F , 9°C
Dew Point: 45°F , 7°C
Humidity: 87%
Barometer: 29.93 inHg , 1013.5 hPa
Clouds: Clear
Visibility: 10 miles , 16 km
2021/04/20 05:51 KILG 200551Z AUTO 00000KT 10SM CLR 09/07 A2993 RMK AO2 SLP134 T00890072 10133 20083 51006 $
KPHL - Philadelphia, Pennsylvania, USA
Distance from station: E 27mi, 43km
Updated: Tue, 20-Apr-2021 1:54am EDT
Clear
Clear
 Wind from SW
Wind: SW 9 mph , 15 km/h
Temperature: 52°F , 11°C
Dew Point: 46°F , 8°C
Humidity: 82%
Barometer: 29.92 inHg , 1013.2 hPa
Clouds: Clear
Visibility: 10 miles , 16 km
2021/04/20 05:54 KPHL 200554Z 23008KT 10SM CLR 11/08 A2992 RMK AO2 SLP132 T01060078 10144 20106 51008
 
KPTW - Pottstown, Pennsylvania, USA
Distance from station: NNE 29mi, 47km
Updated: Tue, 20-Apr-2021 1:54am EDT
Clear
Clear
 Wind from calm
Wind: Calm
Temperature: 43°F , 6°C
Dew Point: 39°F , 4°C
Humidity: 87%
Barometer: 29.92 inHg , 1013.2 hPa
Clouds: Clear
Visibility: 9 miles , 14 km
2021/04/20 05:54 KPTW 200554Z AUTO 00000KT 9SM CLR 06/04 A2992 RMK AO2 SLP129 T00560044 10106 20056 51006
KLOM - Philly Wings F, Pennsylvania, USA
Distance from station: NE 32mi, 52km
Updated: Tue, 20-Apr-2021 2:15am EDT

 
2021/04/20 06:15 KLOM 200615Z AUTO RMK AO2 PWINO
 
KAPG - Aberdeen/Phillip, Maryland, USA
Distance from station: SW 34mi, 55km
Updated: Tue, 20-Apr-2021 1:58am EDT
Clear
Clear
 Wind from calm
Wind: Calm
Temperature: 43°F , 6°C
Dew Point: 43°F , 6°C
Humidity: 100%
Barometer: 29.93 inHg , 1013.5 hPa
Clouds: Clear
Visibility: 8 miles , 13 km
2021/04/20 05:58 KAPG 200558Z AUTO 00000KT 8SM R22/5500FT CLR 06/06 A2993 RMK AO2 SLP139 60001 T00640063 10109 20051 51005 $
KLNS - Lancaster, Pennsylvania, USA
Distance from station: WNW 35mi, 57km
Updated: Tue, 20-Apr-2021 1:53am EDT
Clear
Clear
 Wind from E
Wind: E 3 mph , 6 km/h
Temperature: 43°F , 6°C
Dew Point: 39°F , 4°C
Humidity: 87%
Barometer: 29.90 inHg , 1012.5 hPa
Clouds: Clear
Visibility: 7 miles , 11 km
2021/04/20 05:53 KLNS 200553Z AUTO 09003KT 7SM CLR 06/04 A2990 RMK AO2 SLP127 T00560039 10133 20056 50004 TSNO
 
KRDG - Reading, Pennsylvania, USA
Distance from station: NNW 38mi, 62km
Updated: Tue, 20-Apr-2021 1:54am EDT
Clear
Clear
 Wind from SSW
Wind: SSW 3 mph , 6 km/h
Temperature: 52°F , 11°C
Dew Point: 43°F , 6°C
Humidity: 72%
Barometer: 29.89 inHg , 1012.2 hPa
Clouds: Clear
Visibility: 10 miles , 16 km
2021/04/20 05:54 KRDG 200554Z AUTO 20003KT 10SM CLR 11/06 A2989 RMK AO2 SLP126 T01060056 10122 20089 51005 $
KPNE - Philadelphia/Ne, Pennsylvania, USA
Distance from station: ENE 42mi, 67km
Updated: Tue, 20-Apr-2021 1:54am EDT
Clear
Clear
 Wind from WSW
Wind: WSW 5 mph , 7 km/h
Temperature: 48°F , 9°C
Wind Chill: 46°F , 8°C
Dew Point: 46°F , 8°C
Humidity: 94%
Barometer: 29.92 inHg , 1013.2 hPa
Clouds: Clear
Visibility: 10 miles , 16 km
2021/04/20 05:54 KPNE 200554Z AUTO 24004KT 10SM CLR 09/08 A2992 RMK AO2 SLP132 T00940083 10144 20094 51008
 
KCKZ - Perkasie, Pennsylvania, USA
Distance from station: NNE 45mi, 72km
Updated: Tue, 20-Apr-2021 2:15am EDT
Clear
Clear
 Wind from calm
Wind: Calm
Temperature: 43°F , 6°C
Dew Point: 43°F , 6°C
Humidity: 100%
Barometer: 29.91 inHg , 1012.9 hPa
Clouds: Clear
Visibility: 10 miles , 16 km
2021/04/20 06:15 KCKZ 200615Z AUTO 00000KT 10SM CLR 06/06 A2991 RMK AO2
KUKT - Quakertown Arp, Pennsylvania, USA
Distance from station: NNE 45mi, 73km
Updated: Tue, 20-Apr-2021 2:15am EDT
Clear
Clear
 Wind from calm
Wind: Calm
Temperature: 39°F , 4°C
Dew Point: 39°F , 4°C
Humidity: 100%
Barometer: 29.90 inHg , 1012.5 hPa
Clouds: Clear
Visibility: 10 miles , 16 km
2021/04/20 06:15 KUKT 200615Z AUTO 00000KT 10SM CLR 04/04 A2990 RMK A01
 
KDYL - Doylestown, Pennsylvania, USA
Distance from station: NE 47mi, 76km
Updated: Tue, 20-Apr-2021 1:54am EDT
Clear
Clear
 Wind from SW
Wind: SW 3 mph , 6 km/h
Temperature: 48°F , 9°C
Dew Point: 41°F , 5°C
Humidity: 76%
Barometer: 29.90 inHg , 1012.5 hPa
Clouds: Clear
Visibility: 10 miles , 16 km
2021/04/20 05:54 KDYL 200554Z AUTO 22003KT 10SM CLR 09/05 A2990 RMK AO2 SLP124 T00890050 10139 20089 50006
KMIV - Millville, New Jersey, USA
Distance from station: SE 48mi, 77km
Updated: Tue, 20-Apr-2021 1:54am EDT
Clear
Clear
 Wind from calm
Wind: Calm
Temperature: 39°F , 4°C
Dew Point: 36°F , 2°C
Humidity: 87%
Barometer: 29.93 inHg , 1013.5 hPa
Clouds: Clear
Visibility: 9 miles , 14 km
2021/04/20 05:54 KMIV 200554Z AUTO 00000KT 9SM CLR 04/02 A2993 RMK AO2 SLP133 T00390017 10106 20028 51008
 
KVAY - Mount Holly, New Jersey, USA
Distance from station: E 48mi, 78km
Updated: Tue, 20-Apr-2021 1:54am EDT
Clear
Clear
 Wind from SW
Wind: SW 3 mph , 6 km/h
Temperature: 48°F , 9°C
Dew Point: 45°F , 7°C
Humidity: 87%
Barometer: 29.91 inHg , 1012.9 hPa
Clouds: Clear
Visibility: 10 miles , 16 km
2021/04/20 05:54 KVAY 200554Z AUTO 22003KT 10SM CLR 09/07 A2991 RMK AO2 RAB08E14 SLP129 P0000 60000 T00940067 10144 20089 51008